Redgranite, Wisconsin
Current Conditions -  °F | °C
As of 5:56 PM on Saturday 25 Oct 2014 (Local Time) from KY50 Reporting Station
Overcast Overcast  
Wind Chill: 59°   Ceiling: 100
Heat Index: 59°   Visibility: 10mi
Dew Point: 27°   Wind: 13mph
Humidity: 30%   Direction: 290°WNW
Pressure: 29.93"   Gusts: NA
Location:  44.04°N, 89.1°W
Report Text: KY50 252256Z AUTO 29011KT 10SM OVC001 15/M03 A2993 RMK AO2 TSNO T01501027 SLP134
Loading
Personal Weather Stations






























Interactive Weather Map
Tropical Storm Tracking
New forecast layout! Learn more

10-Day Weather Forecast

Advertisements
Track Severe Weather on mobile